Time;durP1;ratioP1;P1;durP2;ratioP2;P2;SDS_P1;SDS_P2;PMS_P1;PMS_P2;Temp;Humidity;BMP_temperature;BMP_pressure;BME280_temperature;BME280_humidity;BME280_pressure;Samples;Min_cycle;Max_cycle;Signal;HPM_P1;HPM_P2
2023/08/11 17:03:30;;;;;;;2.92;0.80;;;24.00;67.40;;;;;;5156077;27;20478;-81
2023/08/11 17:05:55;;;;;;;0.67;0.50;;;23.90;69.20;;;;;;5079595;27;1275122;-82
2023/08/11 17:08:21;;;;;;;0.90;0.85;;;23.80;71.70;;;;;;5113973;28;20024;-82
2023/08/11 17:10:47;;;;;;;0.70;0.70;;;23.60;74.70;;;;;;5113972;28;20019;-81
2023/08/11 17:13:12;;;;;;;1.13;0.63;;;23.50;75.10;;;;;;5113945;28;20016;-82
2023/08/11 17:15:38;;;;;;;1.13;0.75;;;23.40;76.30;;;;;;5115232;28;20107;-82
2023/08/11 17:18:04;;;;;;;2.35;0.73;;;23.30;78.40;;;;;;5113759;28;20026;-83
2023/08/11 17:20:30;;;;;;;0.57;0.57;;;23.20;82.20;;;;;;5113631;28;20034;-82
2023/08/11 17:22:56;;;;;;;0.73;0.68;;;23.00;85.20;;;;;;5113908;28;20118;-82
2023/08/11 17:25:21;;;;;;;1.10;0.60;;;22.90;87.70;;;;;;5118467;28;20070;-86
2023/08/11 17:27:47;;;;;;;1.15;0.70;;;22.80;89.60;;;;;;5128876;28;20053;-84
2023/08/11 17:30:13;;;;;;;3.63;0.98;;;22.70;91.20;;;;;;5127072;28;20050;-86
2023/08/11 17:32:39;;;;;;;1.10;0.65;;;22.60;91.80;;;;;;5129695;28;20047;-84
2023/08/11 17:35:06;;;;;;;2.22;0.77;;;22.40;92.60;;;;;;5130866;28;20038;-85
2023/08/11 17:37:32;;;;;;;1.75;0.68;;;22.20;94.10;;;;;;5115852;28;20019;-82
2023/08/11 17:39:59;;;;;;;1.10;0.98;;;22.10;95.40;;;;;;5114034;28;20023;-83
2023/08/11 17:42:26;;;;;;;4.13;0.85;;;21.90;95.10;;;;;;5112654;28;20168;-82
2023/08/11 17:44:52;;;;;;;0.65;0.65;;;21.80;96.60;;;;;;5113841;28;20024;-85
2023/08/11 17:47:18;;;;;;;1.10;1.10;;;21.70;99.10;;;;;;5113501;28;20016;-82
2023/08/11 17:49:44;;;;;;;1.10;0.65;;;21.50;99.90;;;;;;5113462;28;20024;-82
2023/08/11 17:52:10;;;;;;;1.23;0.93;;;21.40;99.90;;;;;;5113315;28;20027;-81
2023/08/11 17:54:37;;;;;;;0.82;0.77;;;21.20;99.90;;;;;;5113283;28;20027;-82
2023/08/11 17:57:05;;;;;;;1.35;0.60;;;21.10;99.90;;;;;;5102662;28;20089;-76
2023/08/11 17:59:31;;;;;;;0.85;0.75;;;20.90;99.90;;;;;;5092215;28;20020;-78
2023/08/11 18:01:57;;;;;;;0.60;0.60;;;20.80;99.90;;;;;;5092213;28;20020;-79
2023/08/11 18:04:23;;;;;;;2.17;1.13;;;20.60;99.90;;;;;;5092228;28;20016;-76
2023/08/11 18:06:48;;;;;;;0.95;0.95;;;20.40;99.90;;;;;;5091965;28;20024;-77
2023/08/11 18:09:14;;;;;;;0.90;0.90;;;20.20;99.90;;;;;;5094449;28;20024;-75
2023/08/11 18:11:40;;;;;;;1.33;1.23;;;20.10;99.90;;;;;;5092668;28;20486;-76
2023/08/11 18:14:06;;;;;;;8.80;1.70;;;20.00;99.90;;;;;;5092432;28;20051;-77
2023/08/11 18:16:32;;;;;;;2.92;1.02;;;19.90;99.90;;;;;;5094890;28;20048;-77
2023/08/11 18:19:01;;;;;;;0.80;0.80;;;19.80;99.90;;;;;;5092402;28;20020;-77
2023/08/11 18:21:26;;;;;;;1.00;0.90;;;19.60;99.90;;;;;;5092551;28;20442;-76
2023/08/11 18:23:53;;;;;;;1.10;0.98;;;19.50;99.90;;;;;;5092411;28;20506;-76
2023/08/11 18:26:18;;;;;;;1.00;1.00;;;19.40;99.90;;;;;;5093212;28;20024;-77
2023/08/11 18:28:44;;;;;;;1.40;1.25;;;19.30;99.90;;;;;;5091872;28;20030;-76
2023/08/11 18:31:10;;;;;;;1.10;0.90;;;19.20;99.90;;;;;;5092185;28;20060;-76
2023/08/11 18:33:36;;;;;;;1.17;1.05;;;19.10;99.90;;;;;;5091539;28;20024;-76
2023/08/11 18:36:01;;;;;;;1.10;1.00;;;18.90;99.90;;;;;;5093337;28;20103;-76
2023/08/11 18:38:27;;;;;;;1.13;0.88;;;18.90;99.90;;;;;;5091734;28;20032;-75
2023/08/11 18:40:52;;;;;;;2.80;1.15;;;18.90;99.90;;;;;;5092000;28;20107;-76
2023/08/11 18:43:18;;;;;;;1.00;0.90;;;18.80;99.90;;;;;;5092179;28;20393;-76
2023/08/11 18:45:44;;;;;;;0.88;0.88;;;18.70;99.90;;;;;;5093212;28;20020;-77
2023/08/11 18:48:10;;;;;;;4.13;0.80;;;18.60;99.90;;;;;;5091478;28;20081;-76
2023/08/11 18:50:36;;;;;;;1.40;1.30;;;18.50;99.90;;;;;;5093008;28;20067;-76
2023/08/11 18:53:01;;;;;;;2.35;1.20;;;18.40;99.90;;;;;;5091819;28;20378;-76
2023/08/11 18:55:28;;;;;;;1.20;0.82;;;18.40;99.90;;;;;;5092712;28;20016;-77
2023/08/11 18:57:53;;;;;;;1.27;1.00;;;18.30;99.90;;;;;;5092895;28;20028;-76
2023/08/11 19:00:19;;;;;;;0.90;0.90;;;18.20;99.90;;;;;;5091860;28;20024;-77
2023/08/11 19:02:45;;;;;;;1.30;1.20;;;18.10;99.90;;;;;;5093468;28;20149;-76
2023/08/11 19:05:11;;;;;;;0.80;0.80;;;18.00;99.90;;;;;;5092012;28;20073;-76
2023/08/11 19:07:37;;;;;;;0.77;0.70;;;17.80;99.90;;;;;;5091731;28;20016;-77
2023/08/11 19:10:03;;;;;;;1.95;1.27;;;17.80;99.90;;;;;;5092073;28;20540;-77
2023/08/11 19:12:29;;;;;;;3.65;2.70;;;17.70;99.90;;;;;;5091962;28;20409;-76
2023/08/11 19:14:54;;;;;;;3.47;2.33;;;17.60;99.90;;;;;;5093070;28;20024;-76
2023/08/11 19:17:20;;;;;;;2.83;1.83;;;17.60;99.90;;;;;;5092674;28;20028;-76
2023/08/11 19:19:47;;;;;;;2.47;2.00;;;17.60;99.90;;;;;;5093062;28;20067;-77
2023/08/11 19:22:13;;;;;;;6.90;3.08;;;17.60;99.90;;;;;;5092346;28;20052;-76
2023/08/11 19:24:39;;;;;;;3.00;2.10;;;17.60;99.90;;;;;;5092630;28;20023;-77
2023/08/11 19:27:05;;;;;;;1.60;1.50;;;17.50;99.90;;;;;;5106780;28;20079;-77
2023/08/11 19:29:30;;;;;;;3.55;2.45;;;17.50;99.90;;;;;;5109900;28;20035;-77
2023/08/11 19:31:56;;;;;;;2.58;1.63;;;17.50;99.90;;;;;;5109786;28;20020;-77
2023/08/11 19:34:22;;;;;;;5.28;2.10;;;17.40;99.90;;;;;;5114166;28;20035;-77
2023/08/11 19:36:48;;;;;;;2.22;1.80;;;17.30;99.90;;;;;;5110435;28;20053;-79
2023/08/11 19:39:13;;;;;;;2.58;1.77;;;17.20;99.90;;;;;;5097891;28;20024;-78
2023/08/11 19:41:39;;;;;;;2.60;1.70;;;17.20;99.90;;;;;;5095301;28;20031;-76
2023/08/11 19:44:05;;;;;;;1.75;1.63;;;17.10;99.90;;;;;;5094441;28;20386;-77
2023/08/11 19:46:31;;;;;;;1.52;1.33;;;17.10;99.90;;;;;;5094630;28;20024;-79
2023/08/11 19:48:57;;;;;;;2.28;1.20;;;17.10;99.90;;;;;;5093261;28;20475;-76
2023/08/11 19:51:23;;;;;;;2.10;1.85;;;17.00;99.90;;;;;;5093779;28;20482;-76
2023/08/11 19:53:48;;;;;;;3.25;1.80;;;17.00;99.90;;;;;;5093743;28;20085;-76
2023/08/11 19:56:14;;;;;;;2.10;1.45;;;16.90;99.90;;;;;;5091984;28;20042;-76
2023/08/11 19:58:40;;;;;;;2.90;1.98;;;16.80;99.90;;;;;;5091754;28;20028;-77
2023/08/11 20:01:06;;;;;;;2.78;1.55;;;16.80;99.90;;;;;;5092217;28;20030;-76
2023/08/11 20:03:32;;;;;;;1.85;1.33;;;16.70;99.90;;;;;;5095267;28;20020;-77
2023/08/11 20:05:58;;;;;;;2.70;1.65;;;16.70;99.90;;;;;;5099782;28;20039;-78
2023/08/11 20:08:23;;;;;;;2.42;1.63;;;16.70;99.90;;;;;;5101060;28;20024;-79
2023/08/11 20:10:49;;;;;;;4.22;1.40;;;16.60;99.90;;;;;;5098117;28;20027;-77
2023/08/11 20:13:16;;;;;;;1.52;1.42;;;16.50;99.90;;;;;;5101751;28;20028;-77
2023/08/11 20:15:42;;;;;;;2.78;2.25;;;16.60;99.90;;;;;;5102411;28;20397;-79
2023/08/11 20:18:08;;;;;;;2.13;1.67;;;16.50;99.90;;;;;;5101057;28;20020;-78
2023/08/11 20:20:35;;;;;;;2.08;1.67;;;16.50;99.90;;;;;;5101086;28;20548;-79
2023/08/11 20:23:01;;;;;;;1.25;1.13;;;16.50;99.90;;;;;;5103379;28;20075;-78
2023/08/11 20:25:30;;;;;;;3.83;2.65;;;16.50;99.90;;;;;;5101824;28;20047;-79
2023/08/11 20:27:56;;;;;;;2.58;1.77;;;16.50;99.90;;;;;;5099200;28;20016;-78
2023/08/11 20:30:22;;;;;;;2.75;1.55;;;16.50;99.90;;;;;;5098888;28;20032;-77
2023/08/11 20:32:47;;;;;;;3.40;1.40;;;16.40;99.90;;;;;;5096602;28;20025;-79
2023/08/11 20:35:13;;;;;;;1.67;1.50;;;16.30;99.90;;;;;;5096580;28;20028;-77
2023/08/11 20:37:39;;;;;;;1.95;1.30;;;16.30;99.90;;;;;;5096521;28;20468;-77
2023/08/11 20:40:06;;;;;;;1.50;1.40;;;16.20;99.90;;;;;;5095268;28;20039;-78
2023/08/11 20:42:33;;;;;;;1.65;1.45;;;16.20;99.90;;;;;;5096460;28;20462;-77
2023/08/11 20:44:59;;;;;;;3.17;1.73;;;16.10;99.90;;;;;;5096340;28;20016;-79
2023/08/11 20:47:24;;;;;;;2.22;2.03;;;16.10;99.90;;;;;;5095126;28;20104;-78
2023/08/11 20:49:50;;;;;;;2.08;1.70;;;16.00;99.90;;;;;;5096046;28;20039;-77
2023/08/11 20:52:17;;;;;;;2.63;1.45;;;16.00;99.90;;;;;;5095147;28;20020;-78
2023/08/11 20:54:45;;;;;;;2.88;1.38;;;15.90;99.90;;;;;;5096448;28;20024;-78
2023/08/11 20:57:11;;;;;;;1.63;1.50;;;15.90;99.90;;;;;;5094964;28;20035;-79
2023/08/11 20:59:36;;;;;;;2.40;1.80;;;15.80;99.90;;;;;;5095131;28;20024;-79
2023/08/11 21:02:02;;;;;;;1.80;1.48;;;15.80;99.90;;;;;;5096278;28;20042;-78
2023/08/11 21:04:28;;;;;;;4.22;1.92;;;15.70;99.90;;;;;;5096578;28;20492;-78
2023/08/11 21:06:54;;;;;;;2.22;1.77;;;15.70;99.90;;;;;;5096851;28;20103;-79
2023/08/11 21:09:20;;;;;;;1.92;1.75;;;15.70;99.90;;;;;;5095961;28;20067;-78
2023/08/11 21:11:45;;;;;;;2.10;1.63;;;15.70;99.90;;;;;;5094783;28;20119;-77
2023/08/11 21:14:11;;;;;;;3.20;2.05;;;15.70;99.90;;;;;;5094918;28;20055;-78
2023/08/11 21:16:38;;;;;;;3.28;2.30;;;15.70;99.90;;;;;;5094438;28;20119;-77
2023/08/11 21:19:04;;;;;;;3.20;2.00;;;15.60;99.90;;;;;;5094860;28;20109;-77
2023/08/11 21:21:30;;;;;;;2.45;1.80;;;15.60;99.90;;;;;;5096280;28;20654;-80
2023/08/11 21:23:55;;;;;;;1.70;1.60;;;15.60;99.90;;;;;;5096556;28;20031;-80
2023/08/11 21:26:21;;;;;;;2.63;2.10;;;15.60;99.90;;;;;;5096203;28;20500;-78
2023/08/11 21:28:46;;;;;;;2.47;2.10;;;15.50;99.90;;;;;;5096237;28;20501;-78
2023/08/11 21:31:12;;;;;;;3.38;1.60;;;15.40;99.90;;;;;;5096321;28;20027;-78
2023/08/11 21:33:38;;;;;;;1.30;1.20;;;15.40;99.90;;;;;;5095700;28;20048;-78
2023/08/11 21:36:03;;;;;;;1.90;1.55;;;15.40;99.90;;;;;;5095137;28;20434;-79
2023/08/11 21:38:29;;;;;;;3.65;1.42;;;15.40;99.90;;;;;;5095792;28;20020;-79
2023/08/11 21:40:55;;;;;;;1.42;1.27;;;15.30;99.90;;;;;;5095202;28;20032;-77
2023/08/11 21:43:21;;;;;;;2.22;1.80;;;15.30;99.90;;;;;;5096134;28;20478;-80
2023/08/11 21:45:47;;;;;;;3.33;1.92;;;15.30;99.90;;;;;;5109991;28;20020;-78
2023/08/11 21:48:12;;;;;;;2.00;1.80;;;15.40;99.90;;;;;;5113250;28;20020;-78
2023/08/11 21:50:38;;;;;;;2.78;1.92;;;15.40;99.90;;;;;;5112846;28;20028;-77
2023/08/11 21:53:03;;;;;;;2.83;1.52;;;15.30;99.90;;;;;;5095520;28;20405;-78
2023/08/11 21:55:29;;;;;;;2.53;1.70;;;15.20;99.90;;;;;;5095402;28;20102;-78
2023/08/11 21:57:55;;;;;;;2.17;1.63;;;15.10;99.90;;;;;;5093786;28;20114;-77
2023/08/11 22:00:20;;;;;;;3.28;1.83;;;15.10;99.90;;;;;;5095241;28;20433;-77
2023/08/11 22:02:46;;;;;;;1.70;1.60;;;15.10;99.90;;;;;;5095566;28;20012;-77
2023/08/11 22:05:27;;;;;;;2.63;2.10;;;15.10;99.90;;;;;;5095054;28;20024;-77
2023/08/11 22:07:53;;;;;;;2.47;1.65;;;15.10;99.90;;;;;;5094672;28;20627;-77
2023/08/11 22:10:19;;;;;;;4.30;1.95;;;15.10;99.90;;;;;;5093469;28;20157;-78
2023/08/11 22:12:44;;;;;;;2.47;2.00;;;15.00;99.90;;;;;;5094878;28;20095;-77
2023/08/11 22:15:10;;;;;;;2.10;1.90;;;15.00;99.90;;;;;;5094573;28;20063;-77
2023/08/11 22:17:36;;;;;;;2.00;1.80;;;15.00;99.90;;;;;;5094108;28;20470;-76
2023/08/11 22:20:01;;;;;;;3.10;1.98;;;15.00;99.90;;;;;;5092751;28;20039;-76
2023/08/11 22:22:27;;;;;;;2.58;2.13;;;15.00;99.90;;;;;;5094540;28;20022;-79
2023/08/11 22:24:54;;;;;;;2.10;1.67;;;14.90;99.90;;;;;;5093370;28;20016;-78
2023/08/11 22:27:19;;;;;;;1.85;1.73;;;14.90;99.90;;;;;;5093067;28;20028;-77
2023/08/11 22:29:48;;;;;;;4.90;1.77;;;14.90;99.90;;;;;;5093956;28;20020;-77
2023/08/11 22:32:15;;;;;;;2.00;1.67;;;14.90;99.90;;;;;;5093109;28;20020;-76
2023/08/11 22:34:42;;;;;;;8.27;2.60;;;14.90;99.90;;;;;;5094587;28;20023;-78
2023/08/11 22:37:08;;;;;;;2.03;1.83;;;14.80;99.90;;;;;;5094552;28;20024;-78
2023/08/11 22:39:34;;;;;;;2.28;1.70;;;14.80;99.90;;;;;;5094619;28;20042;-77
2023/08/11 22:41:59;;;;;;;3.55;1.98;;;14.80;99.90;;;;;;5094463;28;20032;-78
2023/08/11 22:44:25;;;;;;;3.30;2.17;;;14.80;99.90;;;;;;5093859;28;20020;-76
2023/08/11 22:46:51;;;;;;;4.55;3.03;;;14.80;99.90;;;;;;5094281;28;20035;-77
2023/08/11 22:49:16;;;;;;;6.90;2.97;;;14.80;99.90;;;;;;5093926;28;20024;-78
2023/08/11 22:51:43;;;;;;;3.72;2.65;;;14.70;99.90;;;;;;5094129;28;20028;-77
2023/08/11 22:54:08;;;;;;;2.10;1.73;;;14.70;99.90;;;;;;5092260;28;20035;-76
2023/08/11 22:56:34;;;;;;;2.83;2.30;;;14.70;99.90;;;;;;5093425;28;20024;-76
2023/08/11 22:59:00;;;;;;;3.63;2.20;;;14.70;99.90;;;;;;5094104;28;20401;-77
2023/08/11 23:01:25;;;;;;;3.13;2.10;;;14.70;99.90;;;;;;5093901;28;20047;-77
2023/08/11 23:03:51;;;;;;;1.90;1.80;;;14.60;99.90;;;;;;5093876;28;20024;-78
2023/08/11 23:06:16;;;;;;;2.10;1.63;;;14.60;99.90;;;;;;5093284;28;20032;-76
2023/08/11 23:08:42;;;;;;;1.70;1.60;;;14.60;99.90;;;;;;5093751;28;20078;-78
2023/08/11 23:11:08;;;;;;;2.22;2.00;;;14.60;99.90;;;;;;5093774;28;20044;-78
2023/08/11 23:13:33;;;;;;;2.88;1.92;;;14.50;99.90;;;;;;5093585;28;20052;-77
2023/08/11 23:15:59;;;;;;;3.17;2.35;;;14.50;99.90;;;;;;5094062;28;20024;-77
2023/08/11 23:18:26;;;;;;;3.30;2.03;;;14.40;99.90;;;;;;5092219;28;20095;-76
2023/08/11 23:20:52;;;;;;;2.13;1.92;;;14.40;99.90;;;;;;5093394;28;20420;-77
2023/08/11 23:23:17;;;;;;;2.83;2.17;;;14.40;99.90;;;;;;5094666;28;20088;-79
2023/08/11 23:25:43;;;;;;;2.17;1.85;;;14.50;99.90;;;;;;5094500;28;20027;-77
2023/08/11 23:28:10;;;;;;;2.55;2.03;;;14.50;99.90;;;;;;5094092;28;20070;-77
2023/08/11 23:30:35;;;;;;;4.20;2.10;;;14.60;99.90;;;;;;5092277;28;20032;-77
2023/08/11 23:33:01;;;;;;;2.80;1.92;;;14.60;99.90;;;;;;5093663;28;20406;-77
2023/08/11 23:35:27;;;;;;;5.90;1.92;;;14.50;99.90;;;;;;5091783;28;20396;-76
2023/08/11 23:37:52;;;;;;;4.78;2.25;;;14.30;99.90;;;;;;5092992;28;20034;-76
2023/08/11 23:40:18;;;;;;;2.22;2.03;;;14.20;99.90;;;;;;5094270;28;20028;-77
2023/08/11 23:42:44;;;;;;;2.53;2.00;;;14.20;99.90;;;;;;5096789;28;20028;-77
2023/08/11 23:45:10;;;;;;;2.45;2.22;;;14.20;99.90;;;;;;5097989;28;20466;-76
2023/08/11 23:47:36;;;;;;;4.35;2.42;;;14.20;99.90;;;;;;5097052;28;20057;-77
2023/08/11 23:50:01;;;;;;;3.45;2.05;;;14.20;99.90;;;;;;5095917;28;20028;-77
2023/08/11 23:52:27;;;;;;;2.20;2.10;;;14.20;99.90;;;;;;5096782;28;20389;-78
2023/08/11 23:54:53;;;;;;;2.25;2.05;;;14.20;99.90;;;;;;5097401;28;20077;-77
2023/08/11 23:57:22;;;;;;;4.45;2.15;;;14.20;99.90;;;;;;5095809;28;20077;-75
2023/08/11 23:59:48;;;;;;;3.42;2.13;;;14.30;99.90;;;;;;5097974;28;20024;-76
